sensor_id;sensor_type;location;lat;lon;timestamp;pressure;altitude;pressure_sealevel;temperature;humidity
79584;BME280;69053;57.338;18.700;2023-07-16T00:08:04;101153.22;;;17.37;73.38
79584;BME280;69053;57.338;18.700;2023-07-16T00:14:49;101155.56;;;17.46;72.99
79584;BME280;69053;57.338;18.700;2023-07-16T00:21:34;101156.06;;;17.59;73.35
79584;BME280;69053;57.338;18.700;2023-07-16T00:24:34;101142.59;;;17.63;72.85
79584;BME280;69053;57.338;18.700;2023-07-16T00:28:03;101129.41;;;17.65;73.05
79584;BME280;69053;57.338;18.700;2023-07-16T01:50:56;101055.69;;;18.44;71.74
79584;BME280;69053;57.338;18.700;2023-07-16T01:54:06;101060.81;;;18.57;70.74
79584;BME280;69053;57.338;18.700;2023-07-16T02:07:53;101054.72;;;18.87;69.67
79584;BME280;69053;57.338;18.700;2023-07-16T02:11:18;101044.00;;;18.91;69.90
79584;BME280;69053;57.338;18.700;2023-07-16T02:14:28;101036.88;;;18.95;69.65
79584;BME280;69053;57.338;18.700;2023-07-16T02:17:34;101025.00;;;18.95;70.07
79584;BME280;69053;57.338;18.700;2023-07-16T02:21:05;101035.75;;;18.96;69.98
79584;BME280;69053;57.338;18.700;2023-07-16T02:34:49;101008.78;;;19.03;70.60
79584;BME280;69053;57.338;18.700;2023-07-16T02:37:54;100988.34;;;19.04;70.91
79584;BME280;69053;57.338;18.700;2023-07-16T02:44:10;100984.78;;;19.09;70.46
79584;BME280;69053;57.338;18.700;2023-07-16T02:47:11;100985.59;;;19.09;70.74
79584;BME280;69053;57.338;18.700;2023-07-16T02:50:19;100997.50;;;19.10;71.17
79584;BME280;69053;57.338;18.700;2023-07-16T02:53:25;101004.94;;;19.09;71.83
79584;BME280;69053;57.338;18.700;2023-07-16T02:56:25;100999.41;;;19.09;71.60
79584;BME280;69053;57.338;18.700;2023-07-16T02:59:28;100986.72;;;19.08;71.94
79584;BME280;69053;57.338;18.700;2023-07-16T03:02:29;100964.91;;;19.07;71.83
79584;BME280;69053;57.338;18.700;2023-07-16T03:05:30;100953.84;;;19.07;71.96
79584;BME280;69053;57.338;18.700;2023-07-16T03:08:30;100948.34;;;19.07;72.18
79584;BME280;69053;57.338;18.700;2023-07-16T03:11:31;100946.41;;;19.07;72.57
79584;BME280;69053;57.338;18.700;2023-07-16T03:14:32;100945.03;;;19.10;72.63
79584;BME280;69053;57.338;18.700;2023-07-16T03:17:33;100935.38;;;19.13;72.37
79584;BME280;69053;57.338;18.700;2023-07-16T03:20:33;100922.69;;;19.17;72.26
79584;BME280;69053;57.338;18.700;2023-07-16T03:23:34;100920.50;;;19.19;72.15
79584;BME280;69053;57.338;18.700;2023-07-16T03:26:35;100917.19;;;19.22;72.10
79584;BME280;69053;57.338;18.700;2023-07-16T03:29:36;100912.53;;;19.22;71.99
79584;BME280;69053;57.338;18.700;2023-07-16T03:32:36;100920.53;;;19.24;71.95
79584;BME280;69053;57.338;18.700;2023-07-16T03:35:37;100903.13;;;19.23;71.64
79584;BME280;69053;57.338;18.700;2023-07-16T03:38:37;100907.00;;;19.22;71.92
79584;BME280;69053;57.338;18.700;2023-07-16T03:41:39;100908.91;;;19.22;71.84
79584;BME280;69053;57.338;18.700;2023-07-16T03:44:40;100915.53;;;19.21;72.22
79584;BME280;69053;57.338;18.700;2023-07-16T03:47:43;100908.91;;;19.22;72.12
79584;BME280;69053;57.338;18.700;2023-07-16T03:50:43;100879.94;;;19.24;71.95
79584;BME280;69053;57.338;18.700;2023-07-16T03:53:44;100881.59;;;19.25;71.88
79584;BME280;69053;57.338;18.700;2023-07-16T03:56:45;100872.75;;;19.28;72.15
79584;BME280;69053;57.338;18.700;2023-07-16T03:59:46;100871.41;;;19.31;71.96
79584;BME280;69053;57.338;18.700;2023-07-16T04:02:46;100874.72;;;19.33;71.75
79584;BME280;69053;57.338;18.700;2023-07-16T04:05:47;100869.75;;;19.35;71.82
79584;BME280;69053;57.338;18.700;2023-07-16T04:08:48;100878.31;;;19.39;71.66
79584;BME280;69053;57.338;18.700;2023-07-16T04:11:48;100877.50;;;19.43;70.95
79584;BME280;69053;57.338;18.700;2023-07-16T04:14:49;100872.81;;;19.49;71.17
79584;BME280;69053;57.338;18.700;2023-07-16T04:17:51;100873.69;;;19.55;71.19
79584;BME280;69053;57.338;18.700;2023-07-16T04:20:52;100867.06;;;19.61;71.23
79584;BME280;69053;57.338;18.700;2023-07-16T04:23:53;100858.78;;;19.66;71.05
79584;BME280;69053;57.338;18.700;2023-07-16T04:26:54;100849.13;;;19.68;70.81
79584;BME280;69053;57.338;18.700;2023-07-16T04:29:56;100841.09;;;19.72;70.78
79584;BME280;69053;57.338;18.700;2023-07-16T04:32:58;100837.25;;;19.78;70.67
79584;BME280;69053;57.338;18.700;2023-07-16T04:35:58;100834.50;;;19.83;70.63
79584;BME280;69053;57.338;18.700;2023-07-16T04:39:02;100833.41;;;19.90;70.44
79584;BME280;69053;57.338;18.700;2023-07-16T04:42:03;100848.31;;;19.94;70.49
79584;BME280;69053;57.338;18.700;2023-07-16T04:45:05;100834.78;;;19.97;70.26
79584;BME280;69053;57.338;18.700;2023-07-16T04:48:09;100842.81;;;19.99;70.30
79584;BME280;69053;57.338;18.700;2023-07-16T04:51:11;100829.53;;;20.01;70.21
79584;BME280;69053;57.338;18.700;2023-07-16T04:54:12;100822.63;;;20.03;70.21
79584;BME280;69053;57.338;18.700;2023-07-16T04:57:12;100816.56;;;20.07;69.70
79584;BME280;69053;57.338;18.700;2023-07-16T05:00:14;100814.06;;;20.10;69.90
79584;BME280;69053;57.338;18.700;2023-07-16T05:03:18;100811.56;;;20.14;69.67
79584;BME280;69053;57.338;18.700;2023-07-16T05:06:18;100801.31;;;20.14;69.81
79584;BME280;69053;57.338;18.700;2023-07-16T05:09:19;100795.25;;;20.17;69.75
79584;BME280;69053;57.338;18.700;2023-07-16T05:12:20;100789.16;;;20.20;69.62
79584;BME280;69053;57.338;18.700;2023-07-16T05:15:21;100788.03;;;20.27;69.64
79584;BME280;69053;57.338;18.700;2023-07-16T05:18:22;100787.72;;;20.33;69.51
79584;BME280;69053;57.338;18.700;2023-07-16T05:21:23;100790.19;;;20.45;69.18
79584;BME280;69053;57.338;18.700;2023-07-16T05:24:23;100781.34;;;20.64;68.71
79584;BME280;69053;57.338;18.700;2023-07-16T05:27:24;100790.13;;;20.81;68.17
79584;BME280;69053;57.338;18.700;2023-07-16T05:30:24;100768.22;;;20.90;67.81
79584;BME280;69053;57.338;18.700;2023-07-16T05:33:25;100776.78;;;20.93;67.85
79584;BME280;69053;57.338;18.700;2023-07-16T05:36:26;100779.28;;;20.90;67.53
79584;BME280;69053;57.338;18.700;2023-07-16T05:39:27;100776.53;;;20.85;67.72
79584;BME280;69053;57.338;18.700;2023-07-16T05:42:27;100782.06;;;20.85;67.63
79584;BME280;69053;57.338;18.700;2023-07-16T05:45:29;100785.38;;;20.87;67.65
79584;BME280;69053;57.338;18.700;2023-07-16T05:48:29;100775.16;;;20.87;67.80
79584;BME280;69053;57.338;18.700;2023-07-16T05:51:30;100786.78;;;20.84;68.13
79584;BME280;69053;57.338;18.700;2023-07-16T05:54:31;100783.75;;;20.81;68.30
79584;BME280;69053;57.338;18.700;2023-07-16T05:57:31;100782.38;;;20.78;68.43
79584;BME280;69053;57.338;18.700;2023-07-16T06:00:32;100779.88;;;20.82;68.78
79584;BME280;69053;57.338;18.700;2023-07-16T06:03:33;100784.50;;;21.02;68.34
79584;BME280;69053;57.338;18.700;2023-07-16T06:09:39;100798.13;;;21.38;67.55
79584;BME280;69053;57.338;18.700;2023-07-16T06:12:40;100788.44;;;21.35;67.77
79584;BME280;69053;57.338;18.700;2023-07-16T06:15:40;100795.94;;;21.34;67.69
79584;BME280;69053;57.338;18.700;2023-07-16T06:18:41;100787.66;;;21.29;67.86
79584;BME280;69053;57.338;18.700;2023-07-16T06:21:44;100774.94;;;21.28;68.26
79584;BME280;69053;57.338;18.700;2023-07-16T06:24:51;100777.66;;;21.39;68.06
79584;BME280;69053;57.338;18.700;2023-07-16T06:27:59;100781.19;;;21.49;67.69
79584;BME280;69053;57.338;18.700;2023-07-16T06:31:00;100787.84;;;21.43;67.49
79584;BME280;69053;57.338;18.700;2023-07-16T06:34:02;100766.88;;;21.32;68.11
79584;BME280;69053;57.338;18.700;2023-07-16T06:37:03;100770.22;;;21.29;68.08
79584;BME280;69053;57.338;18.700;2023-07-16T06:40:05;100778.00;;;21.27;68.13
79584;BME280;69053;57.338;18.700;2023-07-16T06:43:06;100800.50;;;21.15;68.15
79584;BME280;69053;57.338;18.700;2023-07-16T06:46:06;100795.84;;;21.00;68.93
79584;BME280;69053;57.338;18.700;2023-07-16T06:49:09;100812.81;;;20.83;69.73
79584;BME280;69053;57.338;18.700;2023-07-16T06:52:30;100805.66;;;20.72;70.56
79584;BME280;69053;57.338;18.700;2023-07-16T06:58:42;100800.66;;;20.74;70.55
79584;BME280;69053;57.338;18.700;2023-07-16T07:01:50;100795.97;;;20.69;70.79
79584;BME280;69053;57.338;18.700;2023-07-16T07:04:53;100795.16;;;20.64;70.99
79584;BME280;69053;57.338;18.700;2023-07-16T07:08:00;100796.25;;;20.63;71.04
79584;BME280;69053;57.338;18.700;2023-07-16T07:11:06;100809.81;;;20.64;71.16
79584;BME280;69053;57.338;18.700;2023-07-16T07:14:12;100813.13;;;20.61;71.19
79584;BME280;69053;57.338;18.700;2023-07-16T07:17:26;100820.06;;;20.53;71.37
79584;BME280;69053;57.338;18.700;2023-07-16T07:20:29;100820.63;;;20.50;71.24
79584;BME280;69053;57.338;18.700;2023-07-16T07:23:30;100825.59;;;20.53;71.38
79584;BME280;69053;57.338;18.700;2023-07-16T07:26:33;100807.88;;;20.70;71.22
79584;BME280;69053;57.338;18.700;2023-07-16T07:29:34;100794.44;;;21.08;70.57
79584;BME280;69053;57.338;18.700;2023-07-16T07:32:58;100790.56;;;21.53;68.63
79584;BME280;69053;57.338;18.700;2023-07-16T07:36:05;100781.28;;;21.73;67.52
79584;BME280;69053;57.338;18.700;2023-07-16T07:39:05;100786.22;;;21.82;67.21
79584;BME280;69053;57.338;18.700;2023-07-16T07:42:08;100783.94;;;21.89;66.75
79584;BME280;69053;57.338;18.700;2023-07-16T07:45:10;100789.97;;;21.96;66.73
79584;BME280;69053;57.338;18.700;2023-07-16T07:48:11;100791.06;;;21.95;66.50
79584;BME280;69053;57.338;18.700;2023-07-16T07:51:11;100781.22;;;21.84;66.60
79584;BME280;69053;57.338;18.700;2023-07-16T08:04:02;100771.09;;;21.98;66.99
79584;BME280;69053;57.338;18.700;2023-07-16T08:07:03;100765.91;;;22.16;66.26
79584;BME280;69053;57.338;18.700;2023-07-16T08:10:07;100768.03;;;22.29;65.89
79584;BME280;69053;57.338;18.700;2023-07-16T08:13:20;100765.81;;;22.26;66.01
79584;BME280;69053;57.338;18.700;2023-07-16T08:16:25;100781.13;;;22.23;65.87
79584;BME280;69053;57.338;18.700;2023-07-16T08:19:30;100787.88;;;22.12;66.18
79584;BME280;69053;57.338;18.700;2023-07-16T08:22:49;100794.94;;;21.99;66.29
79584;BME280;69053;57.338;18.700;2023-07-16T08:26:16;100809.75;;;21.84;66.78
79584;BME280;69053;57.338;18.700;2023-07-16T08:32:31;100796.09;;;21.59;67.48
79584;BME280;69053;57.338;18.700;2023-07-16T08:35:39;100806.13;;;21.49;67.36
79584;BME280;69053;57.338;18.700;2023-07-16T08:38:44;100812.50;;;21.45;67.84
79584;BME280;69053;57.338;18.700;2023-07-16T08:44:59;100820.91;;;21.29;68.36
79584;BME280;69053;57.338;18.700;2023-07-16T09:11:49;100851.47;;;21.09;72.81
79584;BME280;69053;57.338;18.700;2023-07-16T09:24:57;100858.03;;;21.33;71.58
79584;BME280;69053;57.338;18.700;2023-07-16T09:55:35;100975.72;;;19.77;81.61
79584;BME280;69053;57.338;18.700;2023-07-16T10:31:49;101026.00;;;18.56;85.06
79584;BME280;69053;57.338;18.700;2023-07-16T10:35:06;101036.34;;;18.39;85.57
79584;BME280;69053;57.338;18.700;2023-07-16T10:44:58;101049.22;;;18.06;87.01
79584;BME280;69053;57.338;18.700;2023-07-16T11:07:57;100997.56;;;17.74;87.98
79584;BME280;69053;57.338;18.700;2023-07-16T11:11:05;100979.50;;;17.83;87.08
79584;BME280;69053;57.338;18.700;2023-07-16T11:14:44;100998.97;;;17.98;87.05
79584;BME280;69053;57.338;18.700;2023-07-16T11:17:50;100993.38;;;18.15;86.90
79584;BME280;69053;57.338;18.700;2023-07-16T11:20:56;100973.78;;;18.44;86.93
79584;BME280;69053;57.338;18.700;2023-07-16T11:24:12;100961.09;;;18.76;86.62
79584;BME280;69053;57.338;18.700;2023-07-16T11:27:17;100962.97;;;19.07;86.37
79584;BME280;69053;57.338;18.700;2023-07-16T11:30:23;100970.59;;;19.38;85.84
79584;BME280;69053;57.338;18.700;2023-07-16T11:33:35;100969.56;;;19.64;85.54
79584;BME280;69053;57.338;18.700;2023-07-16T11:36:35;100972.72;;;19.83;84.85
79584;BME280;69053;57.338;18.700;2023-07-16T11:39:38;100969.16;;;19.98;84.05
79584;BME280;69053;57.338;18.700;2023-07-16T11:42:41;100970.56;;;20.21;83.65
79584;BME280;69053;57.338;18.700;2023-07-16T11:46:36;100956.47;;;20.49;83.13
79584;BME280;69053;57.338;18.700;2023-07-16T11:50:06;100953.44;;;20.81;81.67
79584;BME280;69053;57.338;18.700;2023-07-16T11:53:19;100952.84;;;21.10;80.93
79584;BME280;69053;57.338;18.700;2023-07-16T11:56:45;100953.22;;;21.63;81.06
79584;BME280;69053;57.338;18.700;2023-07-16T11:59:53;100964.34;;;22.08;79.59
79584;BME280;69053;57.338;18.700;2023-07-16T12:02:57;100959.88;;;22.52;79.29
79584;BME280;69053;57.338;18.700;2023-07-16T12:05:57;100962.91;;;22.84;77.81
79584;BME280;69053;57.338;18.700;2023-07-16T12:09:07;100978.53;;;23.04;74.98
79584;BME280;69053;57.338;18.700;2023-07-16T12:19:09;100980.81;;;23.75;72.42
79584;BME280;69053;57.338;18.700;2023-07-16T12:22:11;100983.59;;;23.75;71.95
79584;BME280;69053;57.338;18.700;2023-07-16T12:25:12;100996.91;;;23.78;70.88
79584;BME280;69053;57.338;18.700;2023-07-16T12:28:13;100992.97;;;23.79;70.90
79584;BME280;69053;57.338;18.700;2023-07-16T12:31:18;100999.16;;;24.00;70.88
79584;BME280;69053;57.338;18.700;2023-07-16T12:38:13;100994.81;;;24.46;67.98
79584;BME280;69053;57.338;18.700;2023-07-16T12:41:38;100997.59;;;24.65;66.16
79584;BME280;69053;57.338;18.700;2023-07-16T13:12:10;101023.47;;;25.87;60.51
79584;BME280;69053;57.338;18.700;2023-07-16T13:15:13;101019.34;;;25.98;59.59
79584;BME280;69053;57.338;18.700;2023-07-16T13:18:14;101029.53;;;26.16;59.38
79584;BME280;69053;57.338;18.700;2023-07-16T13:21:17;101033.50;;;26.38;58.44
79584;BME280;69053;57.338;18.700;2023-07-16T13:24:17;101046.31;;;26.53;56.73
79584;BME280;69053;57.338;18.700;2023-07-16T13:27:23;101043.94;;;26.46;55.93
79584;BME280;69053;57.338;18.700;2023-07-16T13:30:38;101054.53;;;26.72;55.95
79584;BME280;69053;57.338;18.700;2023-07-16T13:33:40;101053.34;;;26.95;55.22
79584;BME280;69053;57.338;18.700;2023-07-16T13:39:58;101054.78;;;26.84;52.43
79584;BME280;69053;57.338;18.700;2023-07-16T13:43:05;101061.69;;;27.09;52.39
79584;BME280;69053;57.338;18.700;2023-07-16T13:46:12;101072.22;;;26.90;50.39
79584;BME280;69053;57.338;18.700;2023-07-16T13:49:38;101070.22;;;27.04;50.49
79584;BME280;69053;57.338;18.700;2023-07-16T13:52:48;101065.25;;;27.01;48.69
79584;BME280;69053;57.338;18.700;2023-07-16T13:56:01;101070.06;;;27.09;48.47
79584;BME280;69053;57.338;18.700;2023-07-16T13:59:05;101077.06;;;26.98;46.82
79584;BME280;69053;57.338;18.700;2023-07-16T14:08:56;101091.25;;;27.64;52.40
79584;BME280;69053;57.338;18.700;2023-07-16T14:11:58;101091.81;;;27.75;52.25
79584;BME280;69053;57.338;18.700;2023-07-16T14:15:04;101102.84;;;27.72;51.94
79584;BME280;69053;57.338;18.700;2023-07-16T14:18:21;101095.97;;;27.46;52.24
79584;BME280;69053;57.338;18.700;2023-07-16T14:24:58;101100.38;;;27.39;53.35
79584;BME280;69053;57.338;18.700;2023-07-16T14:27:58;101100.59;;;27.51;53.02
79584;BME280;69053;57.338;18.700;2023-07-16T14:30:59;101093.72;;;27.66;52.65
79584;BME280;69053;57.338;18.700;2023-07-16T14:54:10;101097.41;;;27.75;43.63
79584;BME280;69053;57.338;18.700;2023-07-16T15:08:16;101094.16;;;27.91;47.16
79584;BME280;69053;57.338;18.700;2023-07-16T15:20:58;101095.75;;;27.74;48.82
79584;BME280;69053;57.338;18.700;2023-07-16T15:30:29;101080.16;;;27.82;47.33
79584;BME280;69053;57.338;18.700;2023-07-16T15:33:42;101082.72;;;27.69;47.18
79584;BME280;69053;57.338;18.700;2023-07-16T15:40:12;101079.78;;;27.75;46.91
79584;BME280;69053;57.338;18.700;2023-07-16T15:46:47;101084.63;;;27.52;40.69
79584;BME280;69053;57.338;18.700;2023-07-16T15:57:24;101087.66;;;26.14;41.01
79584;BME280;69053;57.338;18.700;2023-07-16T16:01:02;101080.19;;;25.82;42.23
79584;BME280;69053;57.338;18.700;2023-07-16T16:28:07;101091.66;;;25.39;46.07
79584;BME280;69053;57.338;18.700;2023-07-16T16:48:30;101097.06;;;24.64;46.88
79584;BME280;69053;57.338;18.700;2023-07-16T16:54:58;101101.41;;;24.51;47.96
79584;BME280;69053;57.338;18.700;2023-07-16T17:01:11;101105.88;;;24.28;48.26
79584;BME280;69053;57.338;18.700;2023-07-16T17:04:39;101107.63;;;24.24;48.61
79584;BME280;69053;57.338;18.700;2023-07-16T17:07:43;101117.75;;;24.15;48.68
79584;BME280;69053;57.338;18.700;2023-07-16T17:10:44;101112.19;;;24.15;48.98
79584;BME280;69053;57.338;18.700;2023-07-16T17:17:06;101107.31;;;23.53;50.50
79584;BME280;69053;57.338;18.700;2023-07-16T17:23:21;101110.03;;;23.29;51.78
79584;BME280;69053;57.338;18.700;2023-07-16T17:26:31;101107.00;;;22.91;52.15
79584;BME280;69053;57.338;18.700;2023-07-16T17:32:42;101115.41;;;22.36;54.24
79584;BME280;69053;57.338;18.700;2023-07-16T17:35:51;101111.38;;;22.08;54.82
79584;BME280;69053;57.338;18.700;2023-07-16T17:38:56;101112.84;;;21.80;55.99
79584;BME280;69053;57.338;18.700;2023-07-16T17:45:36;101111.28;;;21.27;57.16
79584;BME280;69053;57.338;18.700;2023-07-16T17:52:01;101122.63;;;21.00;57.85
79584;BME280;69053;57.338;18.700;2023-07-16T17:55:08;101128.44;;;20.93;58.02
79584;BME280;69053;57.338;18.700;2023-07-16T18:02:07;101122.22;;;20.45;59.86
79584;BME280;69053;57.338;18.700;2023-07-16T18:25:44;101146.38;;;19.97;62.45
79584;BME280;69053;57.338;18.700;2023-07-16T18:39:21;101158.66;;;19.68;63.50
79584;BME280;69053;57.338;18.700;2023-07-16T18:53:05;101176.94;;;19.42;64.46
79584;BME280;69053;57.338;18.700;2023-07-16T18:56:26;101168.31;;;19.34;64.94
79584;BME280;69053;57.338;18.700;2023-07-16T18:59:36;101168.53;;;19.27;64.86
79584;BME280;69053;57.338;18.700;2023-07-16T19:02:48;101169.38;;;19.27;65.05
79584;BME280;69053;57.338;18.700;2023-07-16T20:59:47;101264.13;;;17.50;75.02
79584;BME280;69053;57.338;18.700;2023-07-16T21:09:54;101277.97;;;17.38;75.04
79584;BME280;69053;57.338;18.700;2023-07-16T21:13:21;101281.47;;;17.33;76.38
79584;BME280;69053;57.338;18.700;2023-07-16T21:20:12;101284.88;;;17.23;76.38
79584;BME280;69053;57.338;18.700;2023-07-16T21:26:45;101290.53;;;17.17;76.85
79584;BME280;69053;57.338;18.700;2023-07-16T22:08:08;101295.81;;;16.66;80.54
79584;BME280;69053;57.338;18.700;2023-07-16T22:11:39;101307.19;;;16.58;81.04
79584;BME280;69053;57.338;18.700;2023-07-16T22:15:22;101306.16;;;16.47;80.70
79584;BME280;69053;57.338;18.700;2023-07-16T22:22:19;101311.16;;;16.38;82.39
79584;BME280;69053;57.338;18.700;2023-07-16T22:36:16;101321.56;;;16.12;83.80
79584;BME280;69053;57.338;18.700;2023-07-16T22:42:55;101318.59;;;16.02;84.36
79584;BME280;69053;57.338;18.700;2023-07-16T22:53:25;101309.47;;;15.90;84.91
79584;BME280;69053;57.338;18.700;2023-07-16T23:02:50;101317.78;;;15.71;85.62
79584;BME280;69053;57.338;18.700;2023-07-16T23:09:12;101331.94;;;15.56;85.30
79584;BME280;69053;57.338;18.700;2023-07-16T23:12:15;101320.47;;;15.48;85.67
79584;BME280;69053;57.338;18.700;2023-07-16T23:15:19;101321.75;;;15.45;85.72
79584;BME280;69053;57.338;18.700;2023-07-16T23:18:23;101323.31;;;15.41;85.90
79584;BME280;69053;57.338;18.700;2023-07-16T23:21:25;101321.75;;;15.33;86.15
79584;BME280;69053;57.338;18.700;2023-07-16T23:24:26;101324.09;;;15.30;86.42
79584;BME280;69053;57.338;18.700;2023-07-16T23:27:26;101322.88;;;15.26;86.42
79584;BME280;69053;57.338;18.700;2023-07-16T23:30:27;101321.91;;;15.20;85.71
79584;BME280;69053;57.338;18.700;2023-07-16T23:33:32;101314.59;;;15.14;86.27
79584;BME280;69053;57.338;18.700;2023-07-16T23:36:32;101313.41;;;15.10;86.21
79584;BME280;69053;57.338;18.700;2023-07-16T23:39:33;101314.91;;;15.06;86.07
79584;BME280;69053;57.338;18.700;2023-07-16T23:42:33;101319.22;;;15.02;85.81
79584;BME280;69053;57.338;18.700;2023-07-16T23:45:34;101321.44;;;14.93;85.47
79584;BME280;69053;57.338;18.700;2023-07-16T23:48:35;101320.44;;;14.87;85.44
79584;BME280;69053;57.338;18.700;2023-07-16T23:51:35;101321.59;;;14.79;85.29
79584;BME280;69053;57.338;18.700;2023-07-16T23:54:36;101315.13;;;14.74;85.64
79584;BME280;69053;57.338;18.700;2023-07-16T23:57:36;101317.09;;;14.67;85.88
